sensor_id;sensor_type;location;lat;lon;timestamp;pressure;altitude;pressure_sealevel;temperature;humidity
21730;BME280;11027;51.030;13.812;2022-12-29T00:01:46;99622.00;;;8.18;69.11
21730;BME280;11027;51.030;13.812;2022-12-29T00:04:13;99625.38;;;8.20;69.24
21730;BME280;11027;51.030;13.812;2022-12-29T00:06:41;99630.41;;;8.24;68.94
21730;BME280;11027;51.030;13.812;2022-12-29T00:09:07;99619.22;;;8.27;68.93
21730;BME280;11027;51.030;13.812;2022-12-29T00:11:33;99622.59;;;8.29;68.87
21730;BME280;11027;51.030;13.812;2022-12-29T00:13:58;99622.22;;;8.32;68.80
21730;BME280;11027;51.030;13.812;2022-12-29T00:16:44;99618.13;;;8.36;68.88
21730;BME280;11027;51.030;13.812;2022-12-29T00:19:12;99607.78;;;8.39;68.67
21730;BME280;11027;51.030;13.812;2022-12-29T00:21:56;99609.13;;;8.44;68.67
21730;BME280;11027;51.030;13.812;2022-12-29T00:24:40;99614.66;;;8.50;68.33
21730;BME280;11027;51.030;13.812;2022-12-29T00:27:26;99630.28;;;8.56;68.19
21730;BME280;11027;51.030;13.812;2022-12-29T00:30:11;99636.66;;;8.64;68.01
21730;BME280;11027;51.030;13.812;2022-12-29T00:32:56;99617.94;;;8.69;67.66
21730;BME280;11027;51.030;13.812;2022-12-29T00:35:46;99584.25;;;8.78;67.03
21730;BME280;11027;51.030;13.812;2022-12-29T00:38:15;99595.03;;;8.86;66.65
21730;BME280;11027;51.030;13.812;2022-12-29T00:40:59;99604.16;;;8.93;66.39
21730;BME280;11027;51.030;13.812;2022-12-29T00:43:43;99601.53;;;9.00;66.08
21730;BME280;11027;51.030;13.812;2022-12-29T00:46:27;99598.09;;;9.06;65.73
21730;BME280;11027;51.030;13.812;2022-12-29T00:48:52;99606.72;;;9.10;65.75
21730;BME280;11027;51.030;13.812;2022-12-29T00:51:36;99601.56;;;9.15;65.66
21730;BME280;11027;51.030;13.812;2022-12-29T00:54:02;99591.34;;;9.17;65.71
21730;BME280;11027;51.030;13.812;2022-12-29T00:56:27;99592.38;;;9.16;65.66
21730;BME280;11027;51.030;13.812;2022-12-29T00:58:52;99586.94;;;9.16;65.97
21730;BME280;11027;51.030;13.812;2022-12-29T01:01:17;99578.16;;;9.14;66.11
21730;BME280;11027;51.030;13.812;2022-12-29T01:03:43;99580.19;;;9.12;66.21
21730;BME280;11027;51.030;13.812;2022-12-29T01:06:09;99576.00;;;9.09;66.57
21730;BME280;11027;51.030;13.812;2022-12-29T01:08:35;99572.63;;;9.07;66.88
21730;BME280;11027;51.030;13.812;2022-12-29T01:11:03;99573.63;;;9.06;66.88
21730;BME280;11027;51.030;13.812;2022-12-29T01:13:29;99565.66;;;9.05;67.10
21730;BME280;11027;51.030;13.812;2022-12-29T01:15:55;99572.13;;;9.04;67.21
21730;BME280;11027;51.030;13.812;2022-12-29T01:18:20;99577.94;;;9.00;67.73
21730;BME280;11027;51.030;13.812;2022-12-29T01:20:46;99583.75;;;8.97;67.87
21730;BME280;11027;51.030;13.812;2022-12-29T01:23:11;99573.22;;;8.94;68.26
21730;BME280;11027;51.030;13.812;2022-12-29T01:25:37;99570.72;;;8.93;68.31
21730;BME280;11027;51.030;13.812;2022-12-29T01:28:02;99577.34;;;8.90;68.55
21730;BME280;11027;51.030;13.812;2022-12-29T01:30:28;99573.97;;;8.88;68.69
21730;BME280;11027;51.030;13.812;2022-12-29T01:32:53;99572.31;;;8.87;68.92
21730;BME280;11027;51.030;13.812;2022-12-29T01:35:18;99578.09;;;8.84;69.04
21730;BME280;11027;51.030;13.812;2022-12-29T01:37:44;99573.03;;;8.81;69.10
21730;BME280;11027;51.030;13.812;2022-12-29T01:40:09;99575.53;;;8.82;69.33
21730;BME280;11027;51.030;13.812;2022-12-29T01:42:35;99575.09;;;8.79;69.50
21730;BME280;11027;51.030;13.812;2022-12-29T01:45:08;99576.28;;;8.76;69.66
21730;BME280;11027;51.030;13.812;2022-12-29T01:47:52;99580.88;;;8.76;69.84
21730;BME280;11027;51.030;13.812;2022-12-29T01:50:29;99576.47;;;8.75;69.86
21730;BME280;11027;51.030;13.812;2022-12-29T01:52:58;99568.69;;;8.72;69.83
21730;BME280;11027;51.030;13.812;2022-12-29T01:55:27;99564.97;;;8.73;69.78
21730;BME280;11027;51.030;13.812;2022-12-29T01:57:55;99554.44;;;8.70;69.91
21730;BME280;11027;51.030;13.812;2022-12-29T02:00:24;99554.84;;;8.67;70.08
21730;BME280;11027;51.030;13.812;2022-12-29T02:02:51;99553.13;;;8.66;70.19
21730;BME280;11027;51.030;13.812;2022-12-29T02:05:24;99559.41;;;8.66;70.28
21730;BME280;11027;51.030;13.812;2022-12-29T02:07:51;99556.88;;;8.65;70.33
21730;BME280;11027;51.030;13.812;2022-12-29T02:10:20;99549.09;;;8.61;70.58
21730;BME280;11027;51.030;13.812;2022-12-29T02:12:46;99546.75;;;8.58;70.86
21730;BME280;11027;51.030;13.812;2022-12-29T02:15:11;99532.16;;;8.59;70.82
21730;BME280;11027;51.030;13.812;2022-12-29T02:23:47;99526.72;;;8.59;71.31
21730;BME280;11027;51.030;13.812;2022-12-29T02:26:33;99536.34;;;8.62;71.47
21730;BME280;11027;51.030;13.812;2022-12-29T02:32:21;99526.38;;;8.63;71.72
21730;BME280;11027;51.030;13.812;2022-12-29T02:35:15;99532.63;;;8.63;71.78
21730;BME280;11027;51.030;13.812;2022-12-29T02:38:00;99523.44;;;8.64;71.88
21730;BME280;11027;51.030;13.812;2022-12-29T02:40:38;99518.88;;;8.65;71.67
21730;BME280;11027;51.030;13.812;2022-12-29T02:43:35;99524.31;;;8.65;72.04
21730;BME280;11027;51.030;13.812;2022-12-29T02:46:12;99524.31;;;8.65;72.02
21730;BME280;11027;51.030;13.812;2022-12-29T02:48:46;99507.63;;;8.68;72.19
21730;BME280;11027;51.030;13.812;2022-12-29T02:51:43;99511.00;;;8.70;72.29
21730;BME280;11027;51.030;13.812;2022-12-29T02:54:05;99516.09;;;8.73;72.12
21730;BME280;11027;51.030;13.812;2022-12-29T02:56:49;99503.34;;;8.73;72.08
21730;BME280;11027;51.030;13.812;2022-12-29T02:59:14;99511.31;;;8.75;72.13
21730;BME280;11027;51.030;13.812;2022-12-29T03:04:49;99509.53;;;8.82;72.10
21730;BME280;11027;51.030;13.812;2022-12-29T03:07:24;99511.00;;;8.85;71.97
21730;BME280;11027;51.030;13.812;2022-12-29T03:12:44;99503.34;;;8.88;71.85
21730;BME280;11027;51.030;13.812;2022-12-29T03:15:35;99503.34;;;8.88;71.72
21730;BME280;11027;51.030;13.812;2022-12-29T03:18:34;99505.88;;;8.90;71.69
21730;BME280;11027;51.030;13.812;2022-12-29T03:21:05;99507.75;;;8.89;71.59
21730;BME280;11027;51.030;13.812;2022-12-29T03:23:33;99510.47;;;8.89;71.61
21730;BME280;11027;51.030;13.812;2022-12-29T03:26:02;99499.63;;;8.89;71.46
21730;BME280;11027;51.030;13.812;2022-12-29T03:28:34;99514.03;;;8.90;71.38
21730;BME280;11027;51.030;13.812;2022-12-29T03:31:03;99507.75;;;8.89;71.27
21730;BME280;11027;51.030;13.812;2022-12-29T03:33:29;99505.03;;;8.89;70.96
21730;BME280;11027;51.030;13.812;2022-12-29T03:36:00;99494.19;;;8.89;70.96
21730;BME280;11027;51.030;13.812;2022-12-29T03:38:50;99487.91;;;8.89;71.03
21730;BME280;11027;51.030;13.812;2022-12-29T03:41:23;99492.47;;;8.88;70.91
21730;BME280;11027;51.030;13.812;2022-12-29T03:43:50;99488.75;;;8.89;70.88
21730;BME280;11027;51.030;13.812;2022-12-29T03:46:16;99497.91;;;8.88;70.81
21730;BME280;11027;51.030;13.812;2022-12-29T03:48:41;99487.69;;;8.90;70.91
21730;BME280;11027;51.030;13.812;2022-12-29T03:51:06;99475.00;;;8.91;70.83
21730;BME280;11027;51.030;13.812;2022-12-29T03:53:31;99474.78;;;8.92;70.87
21730;BME280;11027;51.030;13.812;2022-12-29T03:55:57;99478.53;;;8.91;70.56
21730;BME280;11027;51.030;13.812;2022-12-29T03:58:22;99476.19;;;8.88;70.40
21730;BME280;11027;51.030;13.812;2022-12-29T04:00:47;99466.19;;;8.89;70.29
21730;BME280;11027;51.030;13.812;2022-12-29T04:03:12;99467.03;;;8.89;70.35
21730;BME280;11027;51.030;13.812;2022-12-29T04:05:37;99468.69;;;8.90;70.25
21730;BME280;11027;51.030;13.812;2022-12-29T04:08:03;99461.19;;;8.92;70.20
21730;BME280;11027;51.030;13.812;2022-12-29T04:10:28;99460.19;;;8.93;70.08
21730;BME280;11027;51.030;13.812;2022-12-29T04:12:53;99464.56;;;8.94;69.91
21730;BME280;11027;51.030;13.812;2022-12-29T04:15:18;99450.81;;;8.96;69.93
21730;BME280;11027;51.030;13.812;2022-12-29T04:17:44;99453.34;;;8.97;70.02
21730;BME280;11027;51.030;13.812;2022-12-29T04:20:09;99458.78;;;8.97;70.08
21730;BME280;11027;51.030;13.812;2022-12-29T04:23:01;99462.16;;;8.99;69.84
21730;BME280;11027;51.030;13.812;2022-12-29T04:25:26;99460.44;;;8.98;69.93
21730;BME280;11027;51.030;13.812;2022-12-29T04:27:52;99462.50;;;8.96;70.06
21730;BME280;11027;51.030;13.812;2022-12-29T04:30:17;99461.50;;;8.97;69.90
21730;BME280;11027;51.030;13.812;2022-12-29T04:32:42;99467.75;;;8.98;69.77
21730;BME280;11027;51.030;13.812;2022-12-29T04:35:08;99454.19;;;8.98;69.71
21730;BME280;11027;51.030;13.812;2022-12-29T04:37:33;99455.00;;;8.98;69.41
21730;BME280;11027;51.030;13.812;2022-12-29T04:39:58;99464.88;;;8.99;69.59
21730;BME280;11027;51.030;13.812;2022-12-29T04:42:23;99450.88;;;9.02;69.41
21730;BME280;11027;51.030;13.812;2022-12-29T04:44:49;99464.47;;;9.02;69.47
21730;BME280;11027;51.030;13.812;2022-12-29T04:47:14;99466.81;;;9.06;69.50
21730;BME280;11027;51.030;13.812;2022-12-29T04:49:39;99466.81;;;9.06;69.52
21730;BME280;11027;51.030;13.812;2022-12-29T04:52:04;99455.97;;;9.06;69.66
21730;BME280;11027;51.030;13.812;2022-12-29T04:54:30;99461.00;;;9.09;69.83
21730;BME280;11027;51.030;13.812;2022-12-29T04:56:55;99457.75;;;9.13;69.73
21730;BME280;11027;51.030;13.812;2022-12-29T04:59:20;99452.75;;;9.17;69.66
21730;BME280;11027;51.030;13.812;2022-12-29T05:01:45;99462.25;;;9.21;69.95
21730;BME280;11027;51.030;13.812;2022-12-29T05:04:11;99467.94;;;9.26;70.03
21730;BME280;11027;51.030;13.812;2022-12-29T05:06:36;99465.50;;;9.31;70.06
21730;BME280;11027;51.030;13.812;2022-12-29T05:09:01;99462.38;;;9.34;70.19
21730;BME280;11027;51.030;13.812;2022-12-29T05:11:27;99472.03;;;9.37;70.26
21730;BME280;11027;51.030;13.812;2022-12-29T05:13:52;99475.22;;;9.40;70.33
21730;BME280;11027;51.030;13.812;2022-12-29T05:16:17;99478.59;;;9.43;70.44
21730;BME280;11027;51.030;13.812;2022-12-29T05:18:42;99478.59;;;9.43;70.72
21730;BME280;11027;51.030;13.812;2022-12-29T05:21:08;99486.75;;;9.43;70.89
21730;BME280;11027;51.030;13.812;2022-12-29T05:23:33;99483.19;;;9.42;71.32
21730;BME280;11027;51.030;13.812;2022-12-29T05:25:58;99473.16;;;9.43;71.23
21730;BME280;11027;51.030;13.812;2022-12-29T05:28:23;99470.25;;;9.44;71.28
21730;BME280;11027;51.030;13.812;2022-12-29T05:30:50;99471.75;;;9.47;71.20
21730;BME280;11027;51.030;13.812;2022-12-29T05:33:16;99472.38;;;9.49;71.53
21730;BME280;11027;51.030;13.812;2022-12-29T05:35:42;99474.09;;;9.50;71.52
21730;BME280;11027;51.030;13.812;2022-12-29T05:38:07;99472.84;;;9.52;71.58
21730;BME280;11027;51.030;13.812;2022-12-29T05:40:33;99472.03;;;9.52;71.78
21730;BME280;11027;51.030;13.812;2022-12-29T05:42:58;99474.09;;;9.50;71.78
21730;BME280;11027;51.030;13.812;2022-12-29T05:45:23;99483.09;;;9.50;71.92
21730;BME280;11027;51.030;13.812;2022-12-29T05:47:48;99488.53;;;9.50;72.00
21730;BME280;11027;51.030;13.812;2022-12-29T05:50:16;99479.53;;;9.50;71.66
21730;BME280;11027;51.030;13.812;2022-12-29T05:52:41;99492.06;;;9.51;71.86
21730;BME280;11027;51.030;13.812;2022-12-29T05:55:07;99478.66;;;9.49;71.89
21730;BME280;11027;51.030;13.812;2022-12-29T05:57:33;99463.59;;;9.47;71.96
21730;BME280;11027;51.030;13.812;2022-12-29T05:59:58;99470.72;;;9.48;72.01
21730;BME280;11027;51.030;13.812;2022-12-29T06:02:23;99464.63;;;9.46;71.82
21730;BME280;11027;51.030;13.812;2022-12-29T06:04:48;99475.69;;;9.44;71.89
21730;BME280;11027;51.030;13.812;2022-12-29T06:07:13;99476.53;;;9.45;72.07
21730;BME280;11027;51.030;13.812;2022-12-29T06:09:39;99485.34;;;9.47;72.03
21730;BME280;11027;51.030;13.812;2022-12-29T06:12:04;99492.84;;;9.45;72.23
21730;BME280;11027;51.030;13.812;2022-12-29T06:14:30;99487.03;;;9.48;72.17
21730;BME280;11027;51.030;13.812;2022-12-29T06:16:55;99483.28;;;9.49;72.07
21730;BME280;11027;51.030;13.812;2022-12-29T06:19:20;99486.63;;;9.51;72.00
21730;BME280;11027;51.030;13.812;2022-12-29T06:21:45;99487.47;;;9.51;72.03
21730;BME280;11027;51.030;13.812;2022-12-29T06:24:11;99488.34;;;9.52;72.18
21730;BME280;11027;51.030;13.812;2022-12-29T06:26:36;99488.34;;;9.52;72.18
21730;BME280;11027;51.030;13.812;2022-12-29T06:29:01;99490.88;;;9.53;72.02
21730;BME280;11027;51.030;13.812;2022-12-29T06:31:27;99492.06;;;9.51;72.13
21730;BME280;11027;51.030;13.812;2022-12-29T06:33:53;99489.94;;;9.46;72.34
21730;BME280;11027;51.030;13.812;2022-12-29T06:36:18;99476.16;;;9.48;72.07
21730;BME280;11027;51.030;13.812;2022-12-29T06:38:43;99470.25;;;9.44;72.11
21730;BME280;11027;51.030;13.812;2022-12-29T06:41:08;99466.06;;;9.41;72.21
21730;BME280;11027;51.030;13.812;2022-12-29T06:43:34;99468.28;;;9.38;72.19
21730;BME280;11027;51.030;13.812;2022-12-29T06:46:03;99473.25;;;9.34;72.46
21730;BME280;11027;51.030;13.812;2022-12-29T06:48:28;99467.56;;;9.29;72.45
21730;BME280;11027;51.030;13.812;2022-12-29T06:50:53;99469.63;;;9.27;72.46
21730;BME280;11027;51.030;13.812;2022-12-29T06:53:18;99471.69;;;9.25;72.47
21730;BME280;11027;51.030;13.812;2022-12-29T06:55:44;99470.38;;;9.21;72.52
21730;BME280;11027;51.030;13.812;2022-12-29T06:58:09;99470.75;;;9.18;72.44
21730;BME280;11027;51.030;13.812;2022-12-29T07:00:34;99465.69;;;9.15;72.71
21730;BME280;11027;51.030;13.812;2022-12-29T07:02:59;99473.19;;;9.13;72.55
21730;BME280;11027;51.030;13.812;2022-12-29T07:05:25;99474.59;;;9.09;72.77
21730;BME280;11027;51.030;13.812;2022-12-29T07:07:56;99473.28;;;9.05;72.90
21730;BME280;11027;51.030;13.812;2022-12-29T07:10:22;99472.63;;;9.02;73.01
21730;BME280;11027;51.030;13.812;2022-12-29T07:12:47;99469.66;;;8.97;72.92
21730;BME280;11027;51.030;13.812;2022-12-29T07:15:13;99468.34;;;8.93;73.10
21730;BME280;11027;51.030;13.812;2022-12-29T07:17:38;99476.84;;;8.90;73.24
21730;BME280;11027;51.030;13.812;2022-12-29T07:20:04;99477.03;;;8.89;73.35
21730;BME280;11027;51.030;13.812;2022-12-29T07:22:29;99473.47;;;8.88;73.61
21730;BME280;11027;51.030;13.812;2022-12-29T07:24:54;99487.03;;;8.88;73.71
21730;BME280;11027;51.030;13.812;2022-12-29T07:27:20;99488.09;;;8.87;73.52
21730;BME280;11027;51.030;13.812;2022-12-29T07:29:45;99495.19;;;8.88;73.49
21730;BME280;11027;51.030;13.812;2022-12-29T07:32:10;99495.19;;;8.88;73.31
21730;BME280;11027;51.030;13.812;2022-12-29T07:34:36;99499.97;;;8.86;73.27
21730;BME280;11027;51.030;13.812;2022-12-29T07:37:01;99499.78;;;8.88;73.39
21730;BME280;11027;51.030;13.812;2022-12-29T07:39:26;99504.66;;;8.92;73.12
21730;BME280;11027;51.030;13.812;2022-12-29T07:41:51;99488.00;;;8.95;73.32
21730;BME280;11027;51.030;13.812;2022-12-29T07:44:16;99483.88;;;8.99;73.27
21730;BME280;11027;51.030;13.812;2022-12-29T07:46:42;99474.31;;;9.04;73.00
21730;BME280;11027;51.030;13.812;2022-12-29T07:49:07;99476.88;;;9.05;72.83
21730;BME280;11027;51.030;13.812;2022-12-29T07:51:33;99471.22;;;9.07;72.72
21730;BME280;11027;51.030;13.812;2022-12-29T07:53:58;99466.81;;;9.06;72.59
21730;BME280;11027;51.030;13.812;2022-12-29T07:56:25;99479.38;;;9.07;72.55
21730;BME280;11027;51.030;13.812;2022-12-29T07:58:52;99481.06;;;9.08;72.45
21730;BME280;11027;51.030;13.812;2022-12-29T08:01:17;99482.09;;;9.07;72.29
21730;BME280;11027;51.030;13.812;2022-12-29T08:03:42;99484.81;;;9.07;72.10
21730;BME280;11027;51.030;13.812;2022-12-29T08:06:11;99488.16;;;9.09;72.12
21730;BME280;11027;51.030;13.812;2022-12-29T08:08:37;99479.66;;;9.12;72.28
21730;BME280;11027;51.030;13.812;2022-12-29T08:11:02;99484.03;;;9.13;72.02
21730;BME280;11027;51.030;13.812;2022-12-29T08:13:27;99491.84;;;9.16;71.85
21730;BME280;11027;51.030;13.812;2022-12-29T08:15:52;99494.19;;;9.19;71.60
21730;BME280;11027;51.030;13.812;2022-12-29T08:18:18;99505.50;;;9.23;71.38
21730;BME280;11027;51.030;13.812;2022-12-29T08:20:43;99509.75;;;9.25;71.44
21730;BME280;11027;51.030;13.812;2022-12-29T08:23:08;99513.78;;;9.29;71.20
21730;BME280;11027;51.030;13.812;2022-12-29T08:25:34;99511.31;;;9.34;71.10
21730;BME280;11027;51.030;13.812;2022-12-29T08:27:59;99515.34;;;9.38;71.12
21730;BME280;11027;51.030;13.812;2022-12-29T08:30:24;99526.50;;;9.44;70.86
21730;BME280;11027;51.030;13.812;2022-12-29T08:32:49;99521.16;;;9.50;70.57
21730;BME280;11027;51.030;13.812;2022-12-29T08:35:15;99522.28;;;9.56;70.21
21730;BME280;11027;51.030;13.812;2022-12-29T08:37:40;99517.66;;;9.56;69.72
21730;BME280;11027;51.030;13.812;2022-12-29T08:40:06;99516.00;;;9.55;69.49
21730;BME280;11027;51.030;13.812;2022-12-29T08:42:31;99516.19;;;9.54;69.64
21730;BME280;11027;51.030;13.812;2022-12-29T08:45:00;99519.09;;;9.52;69.52
21730;BME280;11027;51.030;13.812;2022-12-29T08:47:26;99524.34;;;9.54;69.39
21730;BME280;11027;51.030;13.812;2022-12-29T08:49:52;99518.06;;;9.53;69.41
21730;BME280;11027;51.030;13.812;2022-12-29T08:52:17;99511.75;;;9.53;69.30
21730;BME280;11027;51.030;13.812;2022-12-29T08:54:42;99513.84;;;9.51;69.28
21730;BME280;11027;51.030;13.812;2022-12-29T08:57:08;99520.97;;;9.52;69.29
21730;BME280;11027;51.030;13.812;2022-12-29T08:59:33;99511.09;;;9.51;69.79
21730;BME280;11027;51.030;13.812;2022-12-29T09:01:58;99508.41;;;9.51;69.32
21730;BME280;11027;51.030;13.812;2022-12-29T09:04:24;99514.47;;;9.53;69.41
21730;BME280;11027;51.030;13.812;2022-12-29T09:06:49;99502.59;;;9.54;69.32
21730;BME280;11027;51.030;13.812;2022-12-29T09:09:14;99500.53;;;9.56;69.40
21730;BME280;11027;51.030;13.812;2022-12-29T09:11:41;99500.53;;;9.56;69.30
21730;BME280;11027;51.030;13.812;2022-12-29T09:14:06;99507.63;;;9.57;69.17
21730;BME280;11027;51.030;13.812;2022-12-29T09:16:32;99502.41;;;9.55;68.89
21730;BME280;11027;51.030;13.812;2022-12-29T09:18:57;99500.53;;;9.56;68.71
21730;BME280;11027;51.030;13.812;2022-12-29T09:21:22;99509.34;;;9.58;68.81
21730;BME280;11027;51.030;13.812;2022-12-29T09:23:48;99497.41;;;9.59;68.77
21730;BME280;11027;51.030;13.812;2022-12-29T09:26:13;99503.91;;;9.58;68.61
21730;BME280;11027;51.030;13.812;2022-12-29T09:28:38;99507.63;;;9.57;68.59
21730;BME280;11027;51.030;13.812;2022-12-29T09:31:04;99504.25;;;9.55;68.45
21730;BME280;11027;51.030;13.812;2022-12-29T09:33:29;99505.13;;;9.55;68.33
21730;BME280;11027;51.030;13.812;2022-12-29T09:35:56;99499.22;;;9.52;68.62
21730;BME280;11027;51.030;13.812;2022-12-29T09:38:23;99508.41;;;9.51;68.42
21730;BME280;11027;51.030;13.812;2022-12-29T09:41:01;99502.78;;;9.52;68.31
21730;BME280;11027;51.030;13.812;2022-12-29T09:46:48;99503.91;;;9.58;68.38
21730;BME280;11027;51.030;13.812;2022-12-29T09:49:24;99506.44;;;9.59;68.16
21730;BME280;11027;51.030;13.812;2022-12-29T09:51:57;99497.50;;;9.66;68.33
21730;BME280;11027;51.030;13.812;2022-12-29T09:54:58;99504.50;;;9.75;68.20
21730;BME280;11027;51.030;13.812;2022-12-29T09:57:27;99498.75;;;9.85;68.47
21730;BME280;11027;51.030;13.812;2022-12-29T09:59:58;99498.91;;;9.98;68.24
21730;BME280;11027;51.030;13.812;2022-12-29T10:02:33;99494.38;;;10.05;68.09
21730;BME280;11027;51.030;13.812;2022-12-29T10:05:01;99485.69;;;10.16;68.35
21730;BME280;11027;51.030;13.812;2022-12-29T10:07:45;99491.66;;;10.27;68.22
21730;BME280;11027;51.030;13.812;2022-12-29T10:10:40;99485.06;;;10.36;67.97
21730;BME280;11027;51.030;13.812;2022-12-29T10:13:42;99494.13;;;10.43;68.03
21730;BME280;11027;51.030;13.812;2022-12-29T10:16:20;99481.44;;;10.50;67.69
21730;BME280;11027;51.030;13.812;2022-12-29T10:19:05;99492.56;;;10.55;67.43
21730;BME280;11027;51.030;13.812;2022-12-29T10:21:56;99506.69;;;10.66;67.14
21730;BME280;11027;51.030;13.812;2022-12-29T10:24:26;99492.13;;;10.80;65.97
21730;BME280;11027;51.030;13.812;2022-12-29T10:26:55;99489.66;;;10.85;65.75
21730;BME280;11027;51.030;13.812;2022-12-29T10:29:25;99486.72;;;10.87;65.77
21730;BME280;11027;51.030;13.812;2022-12-29T10:31:59;99497.22;;;10.90;65.58
21730;BME280;11027;51.030;13.812;2022-12-29T10:34:36;99492.50;;;11.05;65.12
21730;BME280;11027;51.030;13.812;2022-12-29T10:37:17;99483.94;;;11.15;64.40
21730;BME280;11027;51.030;13.812;2022-12-29T10:39:52;99477.31;;;11.24;64.07
21730;BME280;11027;51.030;13.812;2022-12-29T10:42:26;99477.94;;;11.26;64.35
21730;BME280;11027;51.030;13.812;2022-12-29T10:44:53;99477.78;;;11.34;64.40
21730;BME280;11027;51.030;13.812;2022-12-29T10:47:22;99473.25;;;11.55;63.80
21730;BME280;11027;51.030;13.812;2022-12-29T10:49:49;99462.84;;;11.78;63.55
21730;BME280;11027;51.030;13.812;2022-12-29T10:52:16;99457.03;;;11.95;62.85
21730;BME280;11027;51.030;13.812;2022-12-29T10:54:47;99448.44;;;12.11;62.30
21730;BME280;11027;51.030;13.812;2022-12-29T10:57:26;99449.72;;;12.22;61.77
21730;BME280;11027;51.030;13.812;2022-12-29T10:59:52;99454.13;;;12.30;61.58
21730;BME280;11027;51.030;13.812;2022-12-29T11:02:42;99449.72;;;12.29;61.06
21730;BME280;11027;51.030;13.812;2022-12-29T11:05:35;99441.53;;;12.29;61.40
21730;BME280;11027;51.030;13.812;2022-12-29T11:08:09;99439.44;;;12.31;61.45
21730;BME280;11027;51.030;13.812;2022-12-29T11:10:39;99443.22;;;12.36;61.13
21730;BME280;11027;51.030;13.812;2022-12-29T11:13:18;99449.94;;;12.47;61.34
21730;BME280;11027;51.030;13.812;2022-12-29T11:15:46;99441.31;;;12.64;61.17
21730;BME280;11027;51.030;13.812;2022-12-29T11:18:24;99441.06;;;12.78;60.92
21730;BME280;11027;51.030;13.812;2022-12-29T11:20:55;99460.19;;;12.85;60.75
21730;BME280;11027;51.030;13.812;2022-12-29T11:23:44;99447.38;;;12.86;60.67
21730;BME280;11027;51.030;13.812;2022-12-29T11:26:21;99452.84;;;12.79;60.70
21730;BME280;11027;51.030;13.812;2022-12-29T11:31:52;99441.94;;;12.66;60.48
21730;BME280;11027;51.030;13.812;2022-12-29T11:34:23;99430.59;;;12.55;60.88
21730;BME280;11027;51.030;13.812;2022-12-29T11:36:52;99439.00;;;12.47;61.07
21730;BME280;11027;51.030;13.812;2022-12-29T11:39:29;99441.94;;;12.46;61.31
21730;BME280;11027;51.030;13.812;2022-12-29T11:41:54;99440.69;;;12.48;60.97
21730;BME280;11027;51.030;13.812;2022-12-29T11:44:20;99436.50;;;12.52;60.86
21730;BME280;11027;51.030;13.812;2022-12-29T11:46:48;99440.47;;;12.56;60.67
21730;BME280;11027;51.030;13.812;2022-12-29T11:49:20;99438.16;;;12.60;60.56
21730;BME280;11027;51.030;13.812;2022-12-29T11:51:47;99443.81;;;12.72;60.16
21730;BME280;11027;51.030;13.812;2022-12-29T11:54:21;99426.34;;;12.86;60.02
21730;BME280;11027;51.030;13.812;2022-12-29T11:56:48;99434.31;;;13.01;60.34
21730;BME280;11027;51.030;13.812;2022-12-29T12:02:14;99435.13;;;13.15;59.14
21730;BME280;11027;51.030;13.812;2022-12-29T12:04:43;99435.13;;;13.15;59.24
21730;BME280;11027;51.030;13.812;2022-12-29T12:07:22;99439.31;;;13.11;59.26
21730;BME280;11027;51.030;13.812;2022-12-29T12:09:52;99432.59;;;13.07;59.16
21730;BME280;11027;51.030;13.812;2022-12-29T12:12:28;99408.22;;;12.98;59.37
21730;BME280;11027;51.030;13.812;2022-12-29T12:14:56;99427.38;;;12.92;59.19
21730;BME280;11027;51.030;13.812;2022-12-29T12:17:50;99424.66;;;12.85;59.41
21730;BME280;11027;51.030;13.812;2022-12-29T12:20:21;99439.38;;;12.84;59.30
21730;BME280;11027;51.030;13.812;2022-12-29T12:22:54;99424.84;;;12.90;59.15
21730;BME280;11027;51.030;13.812;2022-12-29T12:25:28;99418.34;;;12.91;59.18
21730;BME280;11027;51.030;13.812;2022-12-29T12:28:00;99423.38;;;12.94;59.20
21730;BME280;11027;51.030;13.812;2022-12-29T12:30:30;99425.03;;;13.02;59.25
21730;BME280;11027;51.030;13.812;2022-12-29T12:33:10;99431.53;;;13.08;58.55
21730;BME280;11027;51.030;13.812;2022-12-29T12:36:09;99419.53;;;13.15;58.45
21730;BME280;11027;51.030;13.812;2022-12-29T12:44:24;99404.78;;;13.23;57.61
21730;BME280;11027;51.030;13.812;2022-12-29T12:50:15;99404.78;;;13.23;57.19
21730;BME280;11027;51.030;13.812;2022-12-29T12:53:07;99407.69;;;13.28;57.15
21730;BME280;11027;51.030;13.812;2022-12-29T12:55:49;99400.16;;;13.30;56.98
21730;BME280;11027;51.030;13.812;2022-12-29T12:58:31;99384.97;;;13.34;57.19
21730;BME280;11027;51.030;13.812;2022-12-29T13:04:16;99392.75;;;13.37;57.12
21730;BME280;11027;51.030;13.812;2022-12-29T13:12:54;99380.91;;;13.50;56.57
21730;BME280;11027;51.030;13.812;2022-12-29T13:18:27;99380.31;;;13.73;55.85
21730;BME280;11027;51.030;13.812;2022-12-29T13:21:09;99372.50;;;13.84;55.55
21730;BME280;11027;51.030;13.812;2022-12-29T13:23:43;99396.00;;;13.91;55.10
21730;BME280;11027;51.030;13.812;2022-12-29T13:26:19;99376.97;;;14.03;54.72
21730;BME280;11027;51.030;13.812;2022-12-29T13:28:55;99386.59;;;14.12;54.55
21730;BME280;11027;51.030;13.812;2022-12-29T13:31:36;99373.97;;;14.11;53.98
21730;BME280;11027;51.030;13.812;2022-12-29T13:34:15;99381.28;;;14.17;54.23
21730;BME280;11027;51.030;13.812;2022-12-29T13:36:58;99378.53;;;14.17;54.40
21730;BME280;11027;51.030;13.812;2022-12-29T13:39:30;99398.81;;;14.10;54.31
21730;BME280;11027;51.030;13.812;2022-12-29T13:41:58;99401.00;;;14.01;54.47
21730;BME280;11027;51.030;13.812;2022-12-29T13:44:36;99380.44;;;13.92;54.88
21730;BME280;11027;51.030;13.812;2022-12-29T13:49:36;99398.22;;;13.76;54.67
21730;BME280;11027;51.030;13.812;2022-12-29T13:55:01;99387.75;;;13.66;55.62
21730;BME280;11027;51.030;13.812;2022-12-29T13:57:40;99390.31;;;13.61;55.57
21730;BME280;11027;51.030;13.812;2022-12-29T14:00:19;99399.19;;;13.56;55.21
21730;BME280;11027;51.030;13.812;2022-12-29T14:03:07;99420.66;;;13.53;55.63
21730;BME280;11027;51.030;13.812;2022-12-29T14:05:36;99405.97;;;13.47;55.57